Latest Weather Observations for Strahan

IDT60801

Issued at 4:32 am EDT Sunday 4 December 2016 (issued every 30 minutes, with the page automatically refreshed every 10 minutes)

About weather observations | Map of weather stations | Latest weather observations for TAS | Other Formats
Station Details ID: 097072 Name: STRAHAN AERODROME Lat: -42.16 Lon: 145.29 Height: 21.0 m
Data from the previous 72 hours. | See also: Recent months at Strahan
Date/Time
EDT
Temp
°C
App
Temp
°C
Dew
Point
°C
Rel
Hum
%
Delta-T
°C
Wind Press
QNH
hPa
Press
MSL
hPa
Rain since
9am
mm
Dir  Spd
km/h
Gust
km/h
Spd
kts
Gust
kts
04/04:00am 6.7 4.2 4.9 88 0.8 NE 7 11 4 6 1012.6 1012.6 0.0
04/03:30am 7.2 4.5 5.5 89 0.8 NNE 9 15 5 8 1013.0 1013.0 0.0
04/03:00am 7.2 4.9 5.7 90 0.7 N 7 13 4 7 1013.2 1013.2 0.0
04/02:30am 7.6 5.0 5.9 89 0.8 NNE 9 11 5 6 1013.2 1013.2 0.0
04/02:00am 7.6 4.9 5.7 88 0.9 NNE 9 13 5 7 1013.9 1013.9 0.0
04/01:30am 7.9 5.7 6.2 89 0.8 NE 7 9 4 5 1014.3 1014.3 0.0
04/01:00am 8.3 5.8 6.4 88 0.9 NNE 9 11 5 6 1014.9 1014.9 0.0
04/12:30am 8.6 6.1 6.7 88 0.9 NNE 9 11 5 6 1015.2 1015.2 0.0
04/12:00am 8.9 6.1 6.9 87 0.9 NNE 11 15 6 8 1015.8 1015.7 0.0
 
Date/Time
EDT
Temp
°C
App
Temp
°C
Dew
Point
°C
Rel
Hum
%
Delta-T
°C
Wind Press
QNH
hPa
Press
MSL
hPa
Rain since
9am
mm
Dir  Spd
km/h
Gust
km/h
Spd
kts
Gust
kts
03/11:30pm 9.3 6.5 7.1 86 1.0 NNE 11 15 6 8 1016.0 1015.9 0.0
03/11:00pm 9.6 7.6 7.2 85 1.1 N 7 11 4 6 1016.1 1016.0 0.0
03/10:30pm 9.7 7.0 7.5 86 1.0 NNE 11 15 6 8 1016.2 1016.1 0.0
03/10:00pm 9.9 7.6 7.5 85 1.1 NNE 9 11 5 6 1016.2 1016.1 0.0
03/09:30pm 10.2 8.2 7.3 82 1.4 N 7 9 4 5 1016.1 1016.0 0.0
03/09:00pm 11.1 9.4 7.6 79 1.7 NNW 6 7 3 4 1015.9 1015.8 0.0
03/08:30pm 12.1 9.8 7.4 73 2.3 WNW 9 13 5 7 1016.1 1016.0 0.0
03/08:00pm 13.3 9.9 7.5 68 2.8 WNW 15 20 8 11 1016.0 1015.9 0.0
03/07:30pm 13.6 9.9 7.8 68 2.9 WNW 17 22 9 12 1015.8 1015.7 0.0
03/07:00pm 14.9 10.9 8.2 64 3.4 WNW 19 24 10 13 1015.5 1015.5 0.0
03/06:30pm 14.7 9.8 7.0 60 3.8 WNW 22 28 12 15 1015.4 1015.4 0.0
03/06:00pm 15.3 10.4 6.8 57 4.2 WNW 22 30 12 16 1015.2 1015.2 0.0
03/05:30pm 16.1 11.7 7.3 56 4.4 WNW 20 26 11 14 1015.2 1015.2 0.0
03/05:00pm 16.1 11.4 7.6 57 4.2 NW 22 32 12 17 1015.2 1015.2 0.0
03/04:30pm 16.2 11.0 7.2 55 4.5 NW 24 32 13 17 1015.2 1015.2 0.0
03/04:00pm 15.6 10.3 6.6 55 4.4 WNW 24 32 13 17 1015.3 1015.3 0.0
03/03:30pm 16.8 11.3 7.4 54 4.7 WNW 26 33 14 18 1015.4 1015.4 0.0
03/03:00pm 16.7 11.2 7.4 54 4.6 WNW 26 33 14 18 1015.4 1015.4 0.0
03/02:30pm 17.2 12.8 8.9 58 4.3 NW 22 32 12 17 1015.3 1015.3 0.0
03/02:00pm 16.4 10.7 6.5 52 4.8 NW 26 35 14 19 1015.3 1015.3 0.0
03/01:30pm 16.8 11.6 7.4 54 4.7 NW 24 32 13 17 1015.3 1015.3 0.0
03/01:00pm 16.1 10.2 7.3 56 4.4 WNW 28 39 15 21 1015.1 1015.1 0.0
03/12:30pm 16.2 10.9 6.6 53 4.7 WNW 24 35 13 19 1015.3 1015.3 0.0
03/12:00pm 16.5 11.7 7.2 54 4.6 NW 22 32 12 17 1015.4 1015.4 0.0
03/11:30am 16.0 10.8 7.2 56 4.4 NW 24 33 13 18 1015.5 1015.5 0.0
03/11:00am 15.6 11.1 6.9 56 4.3 NW 20 30 11 16 1015.2 1015.2 0.0
03/10:30am 15.7 11.4 7.2 57 4.2 WNW 19 28 10 15 1015.1 1015.1 0.0
03/10:00am 15.0 11.0 6.8 58 4.0 WNW 17 28 9 15 1015.0 1015.0 0.0
03/09:30am 14.5 10.5 6.8 60 3.7 WNW 17 24 9 13 1014.9 1014.9 0.0
03/09:00am 14.5 10.6 7.1 61 3.6 WNW 17 24 9 13 1014.8 1014.8 0.0
03/08:30am 14.4 10.4 6.5 59 3.8 WNW 17 20 9 11 1014.6 1014.6 0.0
03/08:00am 13.6 9.2 6.5 62 3.4 WNW 19 26 10 14 1014.4 1014.4 0.0
03/07:30am 13.2 9.7 7.2 67 2.9 W 15 20 8 11 1014.3 1014.3 0.0
03/07:00am 12.0 8.1 6.9 71 2.4 W 17 22 9 12 1014.1 1014.1 0.0
03/06:30am 11.9 7.9 6.8 71 2.4 WNW 17 24 9 13 1013.9 1013.9 0.0
03/06:00am 11.7 7.6 6.2 69 2.6 WNW 17 24 9 13 1013.6 1013.6 0.0
03/05:30am 11.4 6.9 6.1 70 2.5 WNW 19 26 10 14 1013.3 1013.3 0.0
03/05:00am 11.7 6.2 5.8 67 2.7 W 24 32 13 17 1013.1 1013.1 0.0
03/04:30am 11.8 6.8 6.5 70 2.5 W 22 32 12 17 1012.8 1012.8 0.0
03/04:00am 11.7 6.2 7.6 76 2.0 NW 26 39 14 21 1012.9 1012.9 0.0
03/03:30am 12.0 7.1 6.7 70 2.5 WNW 22 30 12 16 1012.9 1012.9 0.0
03/03:00am 11.7 6.2 6.0 68 2.7 WNW 24 32 13 17 1013.0 1013.0 0.0
03/02:30am 11.6 6.9 5.9 68 2.7 WNW 20 30 11 16 1012.9 1012.9 0.0
03/02:00am 11.5 6.4 6.0 69 2.6 WNW 22 33 12 18 1013.1 1013.1 0.0
03/01:30am 11.7 5.8 5.8 67 2.7 WNW 26 35 14 19 1013.1 1013.1 0.0
03/01:00am 11.7 5.9 6.4 70 2.5 WNW 26 35 14 19 1013.1 1013.1 0.0
03/12:30am 11.7 5.5 6.0 68 2.7 WNW 28 39 15 21 1013.1 1013.1 0.0
03/12:00am 12.2 6.1 6.7 69 2.6 WNW 28 37 15 20 1013.0 1013.0 0.0
 
Date/Time
EDT
Temp
°C
App
Temp
°C
Dew
Point
°C
Rel
Hum
%
Delta-T
°C
Wind Press
QNH
hPa
Press
MSL
hPa
Rain since
9am
mm
Dir  Spd
km/h
Gust
km/h
Spd
kts
Gust
kts
02/11:30pm 12.2 6.3 6.0 66 2.9 NW 26 35 14 19 1013.0 1013.0 0.0
02/11:00pm 12.4 6.1 5.8 64 3.1 WNW 28 39 15 21 1013.0 1013.0 0.0
02/10:30pm 12.3 6.7 5.5 63 3.2 WNW 24 33 13 18 1013.1 1013.1 0.0
02/10:00pm 12.0 5.9 4.7 61 3.3 WNW 26 33 14 18 1013.1 1013.1 0.0
02/09:30pm 11.8 5.3 4.8 62 3.2 WNW 28 37 15 20 1012.9 1012.9 0.0
02/09:00pm 11.8 6.1 5.0 63 3.1 WNW 24 35 13 19 1012.5 1012.5 0.0
02/08:30pm 12.0 5.7 4.0 58 3.6 WNW 26 35 14 19 1012.3 1012.3 0.0
02/08:00pm 12.8 6.9 5.7 62 3.3 WNW 26 37 14 20 1012.0 1012.0 0.0
02/07:30pm 13.3 6.8 4.7 56 4.0 WNW 28 37 15 20 1011.4 1011.4 0.0
02/07:00pm 13.8 7.1 5.4 57 3.9 WNW 30 39 16 21 1011.5 1011.5 0.0
02/06:30pm 14.6 8.0 6.2 57 4.0 WNW 30 44 16 24 1011.2 1011.2 0.0
02/06:00pm 13.9 7.2 5.8 58 3.8 WNW 30 39 16 21 1010.9 1010.9 0.0
02/05:30pm 15.1 7.8 5.3 52 4.6 NW 33 41 18 22 1010.7 1010.7 0.0
02/05:00pm 15.3 7.6 5.5 52 4.7 WNW 35 46 19 25 1010.7 1010.7 0.0
02/04:30pm 16.1 8.5 6.0 51 4.9 WNW 35 50 19 27 1010.6 1010.6 0.0
02/04:00pm 16.6 10.1 8.3 58 4.2 NW 32 43 17 23 1010.4 1010.4 0.0
02/03:30pm 16.1 9.2 7.1 55 4.5 NW 33 46 18 25 1010.5 1010.5 0.0
02/03:00pm 13.7 7.6 6.8 63 3.3 WNW 28 37 15 20 1010.3 1010.3 0.0
02/02:30pm 15.8 10.7 7.8 59 4.0 WNW 24 35 13 19 1010.1 1010.1 0.0
02/02:00pm 14.0 7.9 6.8 62 3.5 WNW 28 35 15 19 1009.9 1009.9 0.0
02/01:30pm 15.9 9.6 5.8 51 4.9 WNW 28 39 15 21 1009.6 1009.6 0.0
02/01:00pm 15.8 9.2 6.0 52 4.7 WNW 30 39 16 21 1009.4 1009.4 0.0
02/12:30pm 16.6 10.3 7.5 55 4.6 WNW 30 39 16 21 1009.2 1009.2 0.0
02/12:00pm 15.8 9.9 7.3 57 4.2 WNW 28 37 15 20 1009.0 1009.0 0.0
02/11:30am 16.4 10.1 7.6 56 4.4 WNW 30 39 16 21 1008.6 1008.6 0.0
02/11:00am 15.5 8.8 5.7 52 4.7 W 30 37 16 20 1008.4 1008.4 0.0
02/10:30am 15.5 9.3 6.0 53 4.6 W 28 37 15 20 1008.3 1008.3 0.0
02/10:00am 15.4 9.6 7.9 61 3.8 W 28 37 15 20 1008.1 1008.1 0.0
02/09:30am 13.1 7.2 9.0 76 2.1 W 30 43 16 23 1007.8 1007.8 0.0
02/09:00am 14.0 8.1 7.5 65 3.2 WNW 28 39 15 21 1007.4 1007.4 1.8
02/08:30am 12.5 6.5 8.6 77 1.9 W 30 44 16 24 1007.0 1007.0 1.8
02/08:14am 12.5 7.8 9.1 80 1.7 WNW 24 37 13 20 1006.7 1006.7 1.8
02/08:02am 12.1 8.0 10.0 87 1.1 WNW 22 32 12 17 1006.4 1006.4 1.8
02/08:01am 12.1 8.4 10.3 89 0.9 WNW 20 32 11 17 1006.4 1006.4 1.8
02/08:00am 12.1 8.4 10.3 89 0.9 WNW 20 32 11 17 1006.4 1006.4 1.8
02/07:42am 11.6 7.6 10.3 92 0.7 WNW 22 32 12 17 1006.1 1006.1 1.8
02/07:30am 11.3 8.2 10.2 93 0.6 WNW 17 24 9 13 1005.8 1005.8 1.8
02/07:00am 10.7 7.3 9.3 91 0.7 WNW 17 24 9 13 1005.3 1005.3 1.6
02/06:42am 10.8 6.9 9.6 92 0.6 W 20 30 11 16 1004.9 1004.9 1.2
02/06:35am 10.7 6.4 9.3 91 0.7 W 22 32 12 17 1004.7 1004.7 1.0
02/06:30am 10.7 6.1 9.5 92 0.6 W 24 37 13 20 1004.6 1004.6 1.0
02/06:12am 11.3 5.4 10.4 94 0.5 W 32 44 17 24 1004.4 1004.4 0.6
02/06:09am 11.2 5.0 10.1 93 0.6 W 33 44 18 24 1004.2 1004.2 0.6
02/06:00am 11.3 5.2 9.9 91 0.7 W 32 43 17 23 1004.0 1004.0 0.6
02/05:58am 11.3 6.0 9.9 91 0.7 W 28 43 15 23 1004.0 1004.0 0.6
02/05:45am 12.4 6.6 9.6 83 1.4 NW 30 43 16 23 1003.8 1003.8 0.0
02/05:30am 13.7 9.2 9.9 78 2.0 NW 24 32 13 17 1003.5 1003.5 0.0
02/05:00am 13.7 8.2 9.2 74 2.3 NW 28 39 15 21 1003.5 1003.5 0.0
02/04:30am 13.6 8.5 9.3 75 2.2 NNW 26 35 14 19 1003.5 1003.5 0.0
02/04:00am 13.6 8.8 8.9 73 2.4 NW 24 35 13 19 1003.7 1003.7 0.0
02/03:30am 12.6 9.5 8.9 78 1.9 N 15 20 8 11 1003.9 1003.9 0.0
02/03:00am 13.4 10.1 9.5 77 2.0 NW 17 24 9 13 1003.9 1003.9 0.0
02/02:30am 12.8 9.8 9.4 80 1.7 NNW 15 20 8 11 1004.0 1004.0 0.0
02/02:00am 12.3 9.6 8.8 79 1.8 NNW 13 19 7 10 1004.1 1004.1 0.0
02/01:30am 13.0 10.2 8.5 74 2.2 N 13 19 7 10 1004.3 1004.3 0.0
02/01:00am 13.6 9.5 7.8 68 2.9 NNW 19 26 10 14 1004.6 1004.6 0.0
02/12:30am 13.7 10.1 8.5 71 2.6 NW 17 22 9 12 1004.9 1004.9 0.0
02/12:00am 13.8 9.4 9.0 73 2.4 NW 22 30 12 16 1005.3 1005.3 0.0
 
Date/Time
EDT
Temp
°C
App
Temp
°C
Dew
Point
°C
Rel
Hum
%
Delta-T
°C
Wind Press
QNH
hPa
Press
MSL
hPa
Rain since
9am
mm
Dir  Spd
km/h
Gust
km/h
Spd
kts
Gust
kts
01/11:30pm 13.6 10.1 8.7 72 2.5 NW 17 24 9 13 1005.4 1005.4 0.0
01/11:00pm 13.8 9.7 8.8 72 2.5 WNW 20 24 11 13 1005.5 1005.5 0.0
01/10:30pm 13.8 10.1 9.3 74 2.3 NW 19 24 10 13 1005.8 1005.8 0.0
01/10:00pm 13.7 10.7 9.4 75 2.2 NW 15 22 8 12 1005.8 1005.8 0.0
01/09:30pm 13.7 11.3 9.9 78 2.0 NW 13 20 7 11 1006.0 1006.0 0.0
01/09:00pm 13.6 11.9 9.8 78 2.0 NW 9 13 5 7 1005.9 1005.9 0.0
01/08:30pm 13.7 11.9 9.6 76 2.1 NW 9 11 5 6 1005.9 1005.9 0.0
01/08:00pm 14.1 11.8 9.1 72 2.6 NW 11 17 6 9 1006.0 1006.0 0.0
01/07:30pm 14.1 11.8 8.9 71 2.6 WNW 11 15 6 8 1006.2 1006.2 0.0
01/07:00pm 14.2 11.6 9.4 73 2.5 WNW 13 17 7 9 1005.8 1005.8 0.0
01/06:30pm 14.4 11.7 9.0 70 2.7 WNW 13 17 7 9 1005.5 1005.5 0.0
01/06:00pm 14.9 11.6 8.2 64 3.4 W 15 17 8 9 1005.1 1005.1 0.0
01/05:30pm 15.3 13.6 8.3 63 3.5 WSW 7 11 4 6 1004.5 1004.5 0.0
01/05:00pm 15.2 14.2 8.9 66 3.2 SSW 4 7 2 4 1005.0 1005.0 0.0
01/04:30pm 15.5 14.0 9.2 66 3.2 SW 7 13 4 7 1005.1 1005.1 0.0
01/04:00pm 15.4 13.0 10.0 70 2.8 WSW 13 19 7 10 1005.6 1005.6 0.0
01/03:59pm 15.4 13.0 10.2 71 2.7 WSW 13 19 7 10 1005.6 1005.6 0.0
01/03:30pm 15.3 12.4 10.9 75 2.3 WSW 17 24 9 13 1006.0 1006.0 0.0
01/03:00pm 15.4 12.6 11.2 76 2.3 W 17 20 9 11 1006.2 1006.2 0.0
01/02:30pm 16.1 13.7 11.5 74 2.5 WSW 15 22 8 12 1006.3 1006.3 0.0
01/02:00pm 16.4 13.8 12.0 75 2.4 WSW 17 24 9 13 1006.5 1006.5 0.0
01/01:38pm 16.2 13.0 11.4 73 2.6 W 19 24 10 13 1006.7 1006.7 0.0
01/01:30pm 16.9 14.2 11.8 72 2.8 W 17 24 9 13 1006.7 1006.7 0.0
01/01:00pm 17.0 14.4 11.9 72 2.8 W 17 26 9 14 1006.9 1006.9 0.0
01/12:30pm 17.1 15.1 11.6 70 3.0 WSW 13 20 7 11 1007.0 1007.0 0.0
01/12:00pm 16.8 14.8 11.5 71 2.9 W 13 20 7 11 1007.2 1007.2 0.0
01/11:30am 17.5 15.7 12.2 71 2.9 W 13 17 7 9 1007.2 1007.2 0.0
01/11:00am 17.1 14.5 12.0 72 2.8 W 17 22 9 12 1007.4 1007.4 0.0
01/10:30am 17.9 16.7 12.8 72 2.9 W 11 19 6 10 1007.5 1007.5 0.0
01/10:00am 17.2 15.5 11.2 68 3.3 NW 11 15 6 8 1007.8 1007.8 0.0
01/09:30am 17.7 17.0 11.9 69 3.2 NNW 7 9 4 5 1008.0 1008.0 0.0
01/09:00am 16.3 15.9 11.2 72 2.7 NW 4 7 2 4 1008.0 1008.0 0.0
01/08:30am 15.4 15.0 11.2 76 2.2 S 4 7 2 4 1007.8 1007.8 0.0
01/08:00am 15.0 14.2 11.2 78 2.0 ESE 6 7 3 4 1007.9 1007.9 0.0
01/07:30am 13.4 12.9 10.8 84 1.4 E 4 6 2 3 1008.2 1008.2 0.0
01/07:00am 12.4 12.7 10.8 90 0.8 CALM 0 6 0 3 1008.2 1008.2 0.0
01/06:30am 11.6 11.7 10.2 91 0.7 CALM 0 0 0 0 1008.4 1008.4 0.0
01/06:00am 11.4 10.0 9.7 89 0.9 NNE 7 9 4 5 1008.4 1008.4 0.0
01/05:30am 10.8 10.6 9.2 90 0.8 CALM 0 2 0 1 1008.3 1008.3 0.0
01/05:00am 11.1 9.9 9.5 90 0.8 NE 6 7 3 4 1008.3 1008.3 0.0

Other Formats:

Comma delimited format used in spreadsheet applications
http://www.bom.gov.au/fwo/IDT60801/IDT60801.94956.axf

JavaScript Object Notation format (JSON) in row-major order
http://www.bom.gov.au/fwo/IDT60801/IDT60801.94956.json